createdAt,value
2024-02-27T00:01:26.453Z,80.79
2024-02-27T00:04:02.996Z,80.81
2024-02-27T00:06:32.558Z,80.91
2024-02-27T00:09:01.739Z,81.05
2024-02-27T00:11:31.749Z,81.17
2024-02-27T00:14:06.357Z,81.23
2024-02-27T00:16:40.990Z,81.27
2024-02-27T00:19:11.009Z,81.28
2024-02-27T00:21:48.589Z,81.16
2024-02-27T00:24:20.073Z,81.20
2024-02-27T00:26:52.333Z,81.17
2024-02-27T00:29:27.201Z,81.18
2024-02-27T00:31:58.184Z,80.92
2024-02-27T00:34:30.345Z,80.75
2024-02-27T00:37:02.806Z,80.66
2024-02-27T00:39:34.836Z,80.89
2024-02-27T00:42:10.580Z,80.98
2024-02-27T00:45:01.500Z,80.89
2024-02-27T00:47:54.275Z,81.18
2024-02-27T00:50:29.304Z,81.23
2024-02-27T00:53:01.818Z,81.12
2024-02-27T00:55:34.252Z,81.32
2024-02-27T00:58:19.936Z,81.59
2024-02-27T01:00:49.310Z,81.79
2024-02-27T01:03:23.928Z,82.06
2024-02-27T01:05:53.124Z,81.96
2024-02-27T01:08:26.971Z,82.19
2024-02-27T01:10:58.013Z,82.35
2024-02-27T01:13:29.452Z,82.48
2024-02-27T01:16:08.830Z,82.44
2024-02-27T01:18:37.997Z,82.42
2024-02-27T01:21:10.165Z,82.35
2024-02-27T01:23:41.819Z,82.26
2024-02-27T01:26:13.435Z,82.27
2024-02-27T01:28:48.521Z,82.28
2024-02-27T01:31:17.512Z,82.35
2024-02-27T01:33:52.732Z,82.41
2024-02-27T01:36:24.350Z,82.40
2024-02-27T01:38:55.505Z,82.38
2024-02-27T01:41:24.529Z,82.46
2024-02-27T01:44:03.386Z,82.56
2024-02-27T01:46:34.775Z,82.45
2024-02-27T01:49:04.426Z,82.20
2024-02-27T01:51:33.492Z,82.01
2024-02-27T01:54:12.078Z,82.17
2024-02-27T01:56:46.060Z,82.29
2024-02-27T01:59:27.399Z,82.27
2024-02-27T02:02:04.491Z,82.45
2024-02-27T02:04:37.058Z,82.35
2024-02-27T02:07:09.394Z,82.15
2024-02-27T02:09:41.332Z,81.93
2024-02-27T02:12:17.010Z,81.76
2024-02-27T02:14:50.025Z,81.64
2024-02-27T02:17:21.705Z,81.69
2024-02-27T02:19:50.608Z,81.71
2024-02-27T02:22:25.237Z,81.71
2024-02-27T02:25:03.944Z,81.75
2024-02-27T02:27:39.716Z,81.83
2024-02-27T02:30:12.807Z,81.88
2024-02-27T02:32:51.511Z,81.92
2024-02-27T02:35:25.078Z,81.99
2024-02-27T02:38:05.543Z,82.05
2024-02-27T02:40:36.996Z,82.07
2024-02-27T02:43:12.317Z,82.29
2024-02-27T02:45:43.868Z,82.43
2024-02-27T02:48:18.910Z,82.50
2024-02-27T02:50:53.443Z,82.43
2024-02-27T02:53:28.405Z,82.32
2024-02-27T02:55:59.860Z,82.21
2024-02-27T02:58:31.702Z,82.19
2024-02-27T03:01:06.758Z,81.94
2024-02-27T03:03:35.586Z,81.72
2024-02-27T03:06:17.593Z,81.59
2024-02-27T03:08:49.683Z,81.58
2024-02-27T03:11:24.703Z,81.66
2024-02-27T03:13:56.468Z,81.77
2024-02-27T03:16:28.739Z,81.79
2024-02-27T03:19:00.343Z,81.89
2024-02-27T03:21:36.004Z,81.91
2024-02-27T03:24:11.168Z,81.92
2024-02-27T03:26:42.635Z,82.02
2024-02-27T03:29:22.905Z,82.06
2024-02-27T03:31:55.261Z,82.26
2024-02-27T03:34:27.551Z,82.59
2024-02-27T03:36:59.607Z,82.55
2024-02-27T03:39:31.644Z,82.68
2024-02-27T03:42:03.479Z,82.76
2024-02-27T03:44:32.942Z,82.94
2024-02-27T03:47:04.446Z,83.02
2024-02-27T03:49:38.226Z,83.09
2024-02-27T03:52:07.379Z,83.24
2024-02-27T03:54:43.037Z,83.33
2024-02-27T03:57:12.201Z,83.40
2024-02-27T03:59:41.145Z,83.44
2024-02-27T04:02:12.905Z,83.39
2024-02-27T04:04:45.455Z,83.39
2024-02-27T04:07:34.639Z,83.33
2024-02-27T04:10:15.585Z,83.32
2024-02-27T04:12:47.438Z,83.33
2024-02-27T04:15:36.270Z,83.35
2024-02-27T04:18:09.129Z,83.39
2024-02-27T04:20:38.102Z,83.49
2024-02-27T04:23:09.745Z,83.56
2024-02-27T04:25:41.717Z,83.60
2024-02-27T04:28:10.496Z,83.60
2024-02-27T04:30:39.741Z,83.56
2024-02-27T04:33:08.908Z,83.37
2024-02-27T04:35:50.165Z,83.41
2024-02-27T04:38:19.044Z,83.51
2024-02-27T04:40:48.215Z,83.55
2024-02-27T04:43:25.103Z,83.53
2024-02-27T04:45:54.019Z,83.52
2024-02-27T04:48:28.121Z,83.50
2024-02-27T04:50:57.002Z,83.38
2024-02-27T04:53:26.105Z,83.23
2024-02-27T04:55:57.884Z,83.11
2024-02-27T04:58:29.004Z,83.03
2024-02-27T05:01:00.361Z,82.98
2024-02-27T05:03:51.018Z,82.92
2024-02-27T05:06:20.463Z,82.98
2024-02-27T05:08:55.602Z,83.06
2024-02-27T05:11:24.331Z,83.19
2024-02-27T05:13:56.252Z,83.22
2024-02-27T05:16:28.115Z,83.15
2024-02-27T05:18:57.014Z,83.03
2024-02-27T05:21:29.676Z,82.97
2024-02-27T05:24:01.538Z,82.97
2024-02-27T05:26:30.521Z,83.06
2024-02-27T05:29:03.116Z,83.08
2024-02-27T05:31:35.689Z,83.08
2024-02-27T05:34:09.035Z,83.10
2024-02-27T05:36:38.172Z,83.18
2024-02-27T05:39:07.333Z,83.26
2024-02-27T05:41:42.692Z,83.33
2024-02-27T05:44:22.044Z,83.41
2024-02-27T05:46:50.757Z,83.34
2024-02-27T05:49:20.106Z,83.25
2024-02-27T05:51:52.116Z,83.30
2024-02-27T05:54:21.736Z,83.39
2024-02-27T05:56:50.403Z,83.38
2024-02-27T05:59:22.160Z,83.42
2024-02-27T06:01:53.407Z,83.43
2024-02-27T06:04:22.250Z,83.48
2024-02-27T06:06:54.373Z,83.50
2024-02-27T06:09:30.284Z,83.45
2024-02-27T06:11:59.758Z,83.32
2024-02-27T06:14:39.995Z,83.30
2024-02-27T06:17:09.974Z,83.29
2024-02-27T06:19:46.902Z,83.21
2024-02-27T06:22:18.652Z,83.14
2024-02-27T06:24:59.920Z,83.22
2024-02-27T06:27:33.044Z,83.09
2024-02-27T06:30:12.399Z,83.00
2024-02-27T06:32:49.224Z,83.08
2024-02-27T06:35:22.677Z,83.11
2024-02-27T06:38:06.093Z,83.08
2024-02-27T06:40:45.069Z,83.06
2024-02-27T06:43:23.852Z,83.34
2024-02-27T06:45:58.321Z,82.91
2024-02-27T06:48:37.984Z,83.00
2024-02-27T06:51:11.521Z,83.13
2024-02-27T06:53:43.435Z,83.24
2024-02-27T06:56:13.555Z,83.39
2024-02-27T06:58:46.457Z,83.14
2024-02-27T07:01:27.763Z,83.24
2024-02-27T07:04:00.207Z,83.16
2024-02-27T07:06:32.555Z,82.85
2024-02-27T07:09:02.198Z,82.95
2024-02-27T07:11:33.323Z,83.05
2024-02-27T07:14:03.220Z,83.16
2024-02-27T07:16:32.433Z,83.27
2024-02-27T07:19:02.400Z,83.02
2024-02-27T07:21:43.955Z,83.08
2024-02-27T07:24:13.513Z,83.49
2024-02-27T07:26:54.318Z,83.78
2024-02-27T07:29:23.299Z,83.76
2024-02-27T07:31:55.273Z,83.46
2024-02-27T07:34:32.999Z,83.87
2024-02-27T07:37:08.066Z,83.37
2024-02-27T07:39:40.057Z,83.34
2024-02-27T07:42:09.679Z,83.56
2024-02-27T07:44:47.691Z,83.61
2024-02-27T07:47:19.539Z,83.64
2024-02-27T07:49:51.417Z,83.88
2024-02-27T07:52:22.063Z,83.89
2024-02-27T07:54:54.079Z,83.87
2024-02-27T07:57:26.782Z,84.06
2024-02-27T08:00:01.712Z,84.14
2024-02-27T08:02:40.136Z,84.31
2024-02-27T08:05:10.348Z,84.47
2024-02-27T08:07:46.502Z,84.33
2024-02-27T08:10:18.398Z,84.16
2024-02-27T08:12:49.840Z,84.11
2024-02-27T08:15:19.611Z,84.07
2024-02-27T08:17:51.918Z,84.31
2024-02-27T08:20:21.802Z,84.25
2024-02-27T08:22:52.376Z,84.34
2024-02-27T08:25:34.544Z,84.70
2024-02-27T08:28:15.914Z,84.57
2024-02-27T08:30:48.255Z,84.72
2024-02-27T08:33:21.103Z,84.88
2024-02-27T08:35:57.411Z,84.97
2024-02-27T08:38:32.796Z,85.00
2024-02-27T08:41:05.441Z,85.10
2024-02-27T08:43:37.648Z,85.16
2024-02-27T08:46:18.098Z,85.19
2024-02-27T08:48:55.961Z,85.24
2024-02-27T08:51:25.169Z,85.42
2024-02-27T08:53:54.911Z,85.44
2024-02-27T08:56:26.671Z,85.59
2024-02-27T08:58:59.143Z,85.56
2024-02-27T09:01:31.537Z,85.58
2024-02-27T09:04:02.414Z,85.54
2024-02-27T09:06:32.285Z,85.36
2024-02-27T09:09:13.911Z,85.39
2024-02-27T09:11:49.161Z,85.47
2024-02-27T09:14:27.377Z,85.57
2024-02-27T09:16:57.122Z,85.62
2024-02-27T09:19:30.174Z,85.66
2024-02-27T09:22:02.004Z,85.71
2024-02-27T09:24:38.766Z,85.72
2024-02-27T09:27:11.184Z,85.80
2024-02-27T09:29:56.582Z,85.86
2024-02-27T09:32:29.070Z,85.85
2024-02-27T09:35:00.924Z,85.81
2024-02-27T09:37:33.285Z,85.85
2024-02-27T09:40:05.781Z,86.02
2024-02-27T09:42:36.831Z,86.15
2024-02-27T09:45:12.911Z,86.24
2024-02-27T09:47:47.803Z,86.40
2024-02-27T09:50:20.957Z,86.53
2024-02-27T09:52:55.408Z,86.65
2024-02-27T09:55:29.434Z,86.81
2024-02-27T09:58:05.252Z,86.94
2024-02-27T10:00:35.117Z,87.08
2024-02-27T10:03:05.701Z,87.18
2024-02-27T10:05:39.891Z,87.11
2024-02-27T10:08:24.339Z,87.02
2024-02-27T10:10:59.780Z,87.00
2024-02-27T10:13:36.093Z,86.96
2024-02-27T10:16:11.503Z,86.94
2024-02-27T10:18:43.033Z,86.96
2024-02-27T10:21:12.210Z,87.06
2024-02-27T10:23:40.992Z,87.27
2024-02-27T10:26:13.884Z,87.19
2024-02-27T10:28:45.412Z,87.03
2024-02-27T10:31:17.212Z,86.87
2024-02-27T10:33:47.450Z,86.86
2024-02-27T10:36:19.497Z,86.95
2024-02-27T10:38:48.453Z,87.04
2024-02-27T10:41:17.153Z,87.03
2024-02-27T10:43:45.945Z,87.21
2024-02-27T10:46:17.873Z,87.17
2024-02-27T10:48:47.151Z,87.24
2024-02-27T10:51:16.576Z,86.98
2024-02-27T10:53:49.782Z,86.86
2024-02-27T10:56:19.597Z,86.87
2024-02-27T10:58:50.326Z,86.78
2024-02-27T11:01:22.508Z,86.88
2024-02-27T11:03:55.132Z,86.72
2024-02-27T11:06:27.386Z,86.62
2024-02-27T11:09:11.489Z,86.65
2024-02-27T11:11:44.168Z,86.62
2024-02-27T11:14:16.561Z,86.61
2024-02-27T11:16:51.468Z,86.69
2024-02-27T11:19:26.171Z,86.84
2024-02-27T11:21:55.957Z,86.97
2024-02-27T11:24:24.739Z,87.00
2024-02-27T11:26:54.444Z,86.80
2024-02-27T11:29:23.613Z,86.76
2024-02-27T11:31:53.378Z,86.71
2024-02-27T11:34:32.739Z,86.73
2024-02-27T11:37:14.689Z,86.48
2024-02-27T11:39:47.915Z,86.49
2024-02-27T11:42:44.499Z,86.59
2024-02-27T11:45:15.813Z,86.37
2024-02-27T11:47:53.668Z,86.25
2024-02-27T11:50:41.489Z,85.98
2024-02-27T11:53:23.206Z,85.91
2024-02-27T11:55:59.649Z,85.68
2024-02-27T11:58:31.521Z,85.50
2024-02-27T12:01:07.142Z,85.35
2024-02-27T12:03:42.503Z,85.30
2024-02-27T12:06:14.412Z,85.21
2024-02-27T12:08:54.312Z,85.12
2024-02-27T12:11:25.544Z,85.19
2024-02-27T12:13:54.432Z,85.27
2024-02-27T12:16:27.881Z,85.23
2024-02-27T12:19:02.957Z,85.34
2024-02-27T12:21:38.419Z,85.44
2024-02-27T12:24:18.906Z,85.58
2024-02-27T12:26:51.269Z,85.63
2024-02-27T12:29:20.658Z,85.57
2024-02-27T12:31:52.727Z,85.50
2024-02-27T12:34:30.799Z,85.52
2024-02-27T12:37:05.878Z,85.48
2024-02-27T12:39:38.880Z,85.19
2024-02-27T12:42:09.081Z,85.00
2024-02-27T12:44:41.323Z,84.91
2024-02-27T12:47:17.102Z,85.01
2024-02-27T12:49:49.021Z,85.23
2024-02-27T12:52:21.501Z,85.14
2024-02-27T12:54:50.809Z,85.13
2024-02-27T12:57:20.612Z,85.13
2024-02-27T12:59:51.442Z,85.10
2024-02-27T13:02:28.443Z,85.09
2024-02-27T13:05:00.295Z,85.21
2024-02-27T13:07:41.506Z,85.18
2024-02-27T13:10:12.440Z,85.33
2024-02-27T13:12:41.071Z,85.31
2024-02-27T13:15:16.213Z,85.18
2024-02-27T13:17:48.017Z,85.06
2024-02-27T13:20:26.855Z,85.13
2024-02-27T13:23:00.452Z,85.08
2024-02-27T13:25:36.668Z,85.07
2024-02-27T13:28:06.520Z,85.10
2024-02-27T13:30:43.401Z,85.09
2024-02-27T13:33:13.758Z,84.92
2024-02-27T13:35:55.451Z,84.84
2024-02-27T13:38:25.247Z,84.91
2024-02-27T13:40:55.789Z,84.93
2024-02-27T13:43:25.092Z,84.82
2024-02-27T13:45:59.828Z,84.81
2024-02-27T13:48:31.554Z,84.94
2024-02-27T13:51:04.499Z,84.98
2024-02-27T13:53:38.844Z,85.03
2024-02-27T13:56:09.258Z,85.07
2024-02-27T13:58:38.487Z,85.21
2024-02-27T14:01:09.504Z,85.19
2024-02-27T14:03:40.804Z,85.15
2024-02-27T14:06:10.312Z,85.14
2024-02-27T14:08:40.915Z,85.13
2024-02-27T14:11:10.342Z,85.15
2024-02-27T14:13:41.752Z,85.24
2024-02-27T14:16:11.975Z,85.45
2024-02-27T14:18:41.286Z,85.61
2024-02-27T14:21:10.701Z,85.76
2024-02-27T14:23:39.974Z,85.90
2024-02-27T14:26:09.382Z,85.99
2024-02-27T14:28:38.681Z,86.09
2024-02-27T14:31:08.080Z,86.12
2024-02-27T14:33:37.149Z,86.17
2024-02-27T14:36:06.663Z,86.28
2024-02-27T14:38:40.663Z,86.41
2024-02-27T14:41:09.987Z,86.47
2024-02-27T14:43:39.930Z,86.57
2024-02-27T14:46:09.540Z,86.60
2024-02-27T14:48:39.217Z,86.63
2024-02-27T14:51:10.019Z,86.68
2024-02-27T14:53:39.470Z,86.63
2024-02-27T14:56:09.190Z,86.62
2024-02-27T14:58:38.885Z,86.60
2024-02-27T15:01:13.335Z,86.60
2024-02-27T15:03:45.986Z,86.63
2024-02-27T15:06:17.499Z,86.67
2024-02-27T15:08:48.700Z,86.55
2024-02-27T15:11:23.558Z,86.46
2024-02-27T15:13:52.909Z,86.48
2024-02-27T15:16:33.472Z,86.36
2024-02-27T15:19:05.194Z,86.36
2024-02-27T15:21:37.548Z,86.29
2024-02-27T15:24:13.934Z,86.27
2024-02-27T15:26:42.793Z,86.17
2024-02-27T15:29:13.010Z,86.09
2024-02-27T15:31:44.880Z,86.06
2024-02-27T15:34:21.967Z,86.02
2024-02-27T15:36:54.660Z,86.01
2024-02-27T15:39:30.467Z,85.96
2024-02-27T15:41:59.611Z,85.89
2024-02-27T15:44:29.542Z,85.91
2024-02-27T15:46:59.643Z,85.82
2024-02-27T15:49:29.084Z,85.76
2024-02-27T15:51:58.344Z,85.74
2024-02-27T15:54:27.621Z,85.73
2024-02-27T15:56:57.493Z,85.69
2024-02-27T15:59:28.006Z,85.55
2024-02-27T16:02:01.855Z,85.36
2024-02-27T16:04:55.179Z,85.32
2024-02-27T16:07:35.187Z,85.34
2024-02-27T16:10:05.499Z,85.40
2024-02-27T16:12:36.914Z,85.45
2024-02-27T16:15:08.976Z,85.44
2024-02-27T16:17:38.109Z,85.56
2024-02-27T16:20:09.282Z,85.57
2024-02-27T16:22:41.722Z,85.65
2024-02-27T16:25:10.622Z,85.65
2024-02-27T16:27:43.125Z,85.64
2024-02-27T16:30:12.970Z,85.61
2024-02-27T16:32:46.951Z,85.66
2024-02-27T16:35:18.277Z,85.64
2024-02-27T16:37:50.227Z,85.68
2024-02-27T16:40:18.994Z,85.53
2024-02-27T16:42:48.981Z,85.55
2024-02-27T16:45:20.572Z,85.60
2024-02-27T16:47:55.605Z,85.60
2024-02-27T16:50:27.674Z,85.67
2024-02-27T16:53:00.559Z,85.75
2024-02-27T16:55:29.794Z,85.76
2024-02-27T16:58:00.634Z,85.65
2024-02-27T17:00:30.247Z,85.59
2024-02-27T17:03:04.272Z,85.58
2024-02-27T17:05:34.197Z,85.49
2024-02-27T17:08:03.006Z,85.55
2024-02-27T17:10:32.417Z,85.53
2024-02-27T17:13:03.992Z,85.52
2024-02-27T17:15:33.227Z,85.56
2024-02-27T17:18:02.117Z,85.65
2024-02-27T17:20:31.058Z,85.81
2024-02-27T17:23:01.448Z,85.86
2024-02-27T17:25:30.814Z,85.80
2024-02-27T17:28:00.320Z,85.82
2024-02-27T17:30:28.883Z,85.82
2024-02-27T17:32:57.943Z,85.79
2024-02-27T17:35:27.166Z,85.68
2024-02-27T17:37:56.170Z,85.63
2024-02-27T17:40:24.943Z,85.55
2024-02-27T17:42:53.983Z,85.50
2024-02-27T17:45:23.766Z,85.48
2024-02-27T17:47:52.703Z,85.61
2024-02-27T17:50:21.948Z,85.62
2024-02-27T17:52:50.830Z,85.68
2024-02-27T17:55:19.517Z,85.64
2024-02-27T17:57:51.706Z,85.61
2024-02-27T18:00:20.999Z,85.57
2024-02-27T18:02:49.769Z,85.53
2024-02-27T18:05:20.114Z,85.51
2024-02-27T18:07:51.650Z,85.57
2024-02-27T18:10:21.170Z,85.58
2024-02-27T18:12:49.916Z,85.64
2024-02-27T18:15:21.930Z,85.65
2024-02-27T18:17:51.076Z,85.62
2024-02-27T18:20:20.085Z,85.70
2024-02-27T18:22:49.340Z,85.66
2024-02-27T18:25:18.305Z,85.70
2024-02-27T18:27:47.576Z,85.72
2024-02-27T18:30:20.543Z,85.86
2024-02-27T18:32:50.751Z,85.96
2024-02-27T18:35:20.042Z,85.87
2024-02-27T18:37:49.490Z,86.02
2024-02-27T18:40:22.491Z,85.99
2024-02-27T18:42:52.723Z,86.03
2024-02-27T18:45:48.094Z,86.03
2024-02-27T18:48:18.514Z,86.07
2024-02-27T18:50:49.101Z,86.02
2024-02-27T18:53:18.610Z,86.03
2024-02-27T18:55:49.235Z,86.03
2024-02-27T18:58:18.672Z,85.98
2024-02-27T19:00:48.967Z,85.95
2024-02-27T19:03:18.958Z,85.94
2024-02-27T19:05:48.274Z,85.91
2024-02-27T19:08:17.901Z,85.91
2024-02-27T19:10:48.977Z,85.92
2024-02-27T19:13:24.474Z,85.90
2024-02-27T19:16:04.842Z,85.90
2024-02-27T19:18:38.828Z,85.91
2024-02-27T19:21:09.939Z,85.89
2024-02-27T19:23:43.152Z,85.91
2024-02-27T19:26:17.612Z,85.94
2024-02-27T19:28:54.430Z,85.89
2024-02-27T19:31:26.932Z,85.83
2024-02-27T19:33:59.637Z,85.80
2024-02-27T19:36:41.056Z,85.82
2024-02-27T19:39:16.115Z,85.83
2024-02-27T19:41:57.586Z,85.80
2024-02-27T19:44:34.732Z,85.91
2024-02-27T19:47:07.856Z,85.86
2024-02-27T19:49:43.657Z,85.85
2024-02-27T19:52:15.953Z,85.89
2024-02-27T19:54:48.722Z,85.86
2024-02-27T19:57:23.676Z,85.86
2024-02-27T19:59:53.855Z,85.88
2024-02-27T20:02:23.188Z,85.86
2024-02-27T20:04:56.027Z,85.85
2024-02-27T20:07:26.150Z,85.79
2024-02-27T20:09:55.764Z,85.74
2024-02-27T20:12:26.000Z,85.72
2024-02-27T20:14:56.650Z,85.58
2024-02-27T20:17:29.298Z,85.79
2024-02-27T20:19:59.193Z,85.88
2024-02-27T20:22:30.345Z,85.77
2024-02-27T20:24:59.566Z,85.83
2024-02-27T20:27:29.568Z,85.96
2024-02-27T20:30:00.502Z,86.06
2024-02-27T20:32:30.122Z,86.12
2024-02-27T20:35:02.475Z,86.15
2024-02-27T20:37:32.214Z,86.15
2024-02-27T20:40:02.801Z,86.17
2024-02-27T20:42:35.099Z,86.18
2024-02-27T20:45:09.316Z,86.14
2024-02-27T20:47:39.575Z,86.17
2024-02-27T20:50:13.012Z,86.14
2024-02-27T20:52:43.362Z,86.08
2024-02-27T20:55:12.680Z,86.02
2024-02-27T20:57:42.260Z,86.00
2024-02-27T21:00:13.246Z,85.96
2024-02-27T21:02:43.061Z,85.93
2024-02-27T21:05:12.867Z,85.89
2024-02-27T21:07:42.355Z,85.88
2024-02-27T21:10:15.759Z,85.85
2024-02-27T21:12:48.083Z,85.84
2024-02-27T21:15:17.593Z,85.81
2024-02-27T21:17:47.606Z,85.77
2024-02-27T21:20:16.449Z,85.80
2024-02-27T21:22:46.025Z,85.78
2024-02-27T21:25:15.965Z,85.75
2024-02-27T21:27:49.997Z,85.73
2024-02-27T21:30:19.723Z,85.68
2024-02-27T21:32:49.118Z,85.71
2024-02-27T21:35:18.491Z,85.70
2024-02-27T21:37:50.184Z,85.71
2024-02-27T21:40:19.231Z,85.73
2024-02-27T21:42:48.176Z,85.74
2024-02-27T21:45:18.156Z,85.76
2024-02-27T21:47:46.961Z,85.76
2024-02-27T21:50:16.544Z,85.77
2024-02-27T21:52:45.349Z,85.75
2024-02-27T21:55:14.845Z,85.72
2024-02-27T21:57:44.712Z,85.71
2024-02-27T22:00:15.200Z,85.69
2024-02-27T22:02:44.378Z,85.67
2024-02-27T22:05:13.382Z,85.65
2024-02-27T22:07:42.568Z,85.71
2024-02-27T22:10:11.668Z,85.74
2024-02-27T22:12:40.423Z,85.66
2024-02-27T22:15:09.810Z,85.64
2024-02-27T22:17:39.187Z,85.61
2024-02-27T22:20:08.545Z,85.61
2024-02-27T22:22:37.963Z,85.63
2024-02-27T22:25:07.535Z,85.68
2024-02-27T22:27:39.475Z,85.81
2024-02-27T22:30:10.720Z,85.90
2024-02-27T22:32:39.467Z,86.03
2024-02-27T22:35:09.099Z,86.10
2024-02-27T22:37:41.428Z,86.13
2024-02-27T22:40:10.987Z,86.20
2024-02-27T22:42:39.633Z,86.25
2024-02-27T22:45:09.253Z,86.26
2024-02-27T22:47:37.977Z,86.23
2024-02-27T22:50:07.318Z,86.17
2024-02-27T22:52:35.843Z,86.13
2024-02-27T22:55:04.585Z,86.19
2024-02-27T22:57:33.137Z,86.25
2024-02-27T23:00:01.999Z,86.29
2024-02-27T23:02:30.851Z,86.21
2024-02-27T23:04:59.239Z,86.19
2024-02-27T23:07:28.111Z,86.20
2024-02-27T23:09:56.973Z,86.22
2024-02-27T23:12:25.501Z,86.21
2024-02-27T23:14:54.184Z,86.24
2024-02-27T23:17:24.222Z,86.22
2024-02-27T23:19:52.996Z,86.11
2024-02-27T23:22:21.685Z,86.01
2024-02-27T23:24:52.002Z,86.06
2024-02-27T23:27:22.165Z,85.96
2024-02-27T23:29:51.113Z,85.91
2024-02-27T23:32:19.599Z,85.84
2024-02-27T23:34:48.072Z,85.97
2024-02-27T23:37:16.647Z,85.92
2024-02-27T23:39:46.426Z,85.89
2024-02-27T23:42:15.199Z,85.87
2024-02-27T23:44:43.772Z,85.83
2024-02-27T23:47:13.649Z,85.90
2024-02-27T23:49:43.773Z,85.91
2024-02-27T23:52:12.396Z,86.02
2024-02-27T23:54:44.704Z,86.16
2024-02-27T23:57:13.664Z,86.16
2024-02-27T23:59:42.313Z,86.20
